Terminal Aerodrome Forecast
Issued by NWS

Home | Current Version | Previous Version | Graphics & Text | Print | Product List | Glossary On
Versions: 1 2 3 4 5 6 7 8 9 10 11 12 13 14
000
FTUS43 KGRB 020500
TAFMTW
TAF
KMTW 020534Z 0206/0306 28010KT P6SM SCT040
     FM020900 28007KT P6SM SKC
     FM022100 24006KT P6SM BKN200
     FM030300 20003KT P6SM BKN120=

USA.gov is the U.S. government's official web portal to all federal, state and local government web resources and services.